sensor_id;sensor_type;location;lat;lon;timestamp;temperature;humidity
8463;DHT22;4268;52.506;13.462;2022-07-10T00:02:21;15.00;98.80
8463;DHT22;4268;52.506;13.462;2022-07-10T00:04:46;14.90;98.90
8463;DHT22;4268;52.506;13.462;2022-07-10T00:07:12;15.00;99.00
8463;DHT22;4268;52.506;13.462;2022-07-10T00:09:37;14.90;98.90
8463;DHT22;4268;52.506;13.462;2022-07-10T00:12:03;15.00;98.90
8463;DHT22;4268;52.506;13.462;2022-07-10T00:14:30;15.00;98.90
8463;DHT22;4268;52.506;13.462;2022-07-10T00:16:56;15.00;98.70
8463;DHT22;4268;52.506;13.462;2022-07-10T00:19:21;15.00;98.70
8463;DHT22;4268;52.506;13.462;2022-07-10T00:21:46;15.00;98.50
8463;DHT22;4268;52.506;13.462;2022-07-10T00:24:12;15.00;98.70
8463;DHT22;4268;52.506;13.462;2022-07-10T00:26:38;15.20;98.80
8463;DHT22;4268;52.506;13.462;2022-07-10T00:29:03;15.10;98.50
8463;DHT22;4268;52.506;13.462;2022-07-10T00:31:29;15.10;98.40
8463;DHT22;4268;52.506;13.462;2022-07-10T00:33:54;15.10;98.60
8463;DHT22;4268;52.506;13.462;2022-07-10T00:36:20;15.10;98.50
8463;DHT22;4268;52.506;13.462;2022-07-10T00:38:45;15.20;98.70
8463;DHT22;4268;52.506;13.462;2022-07-10T00:41:11;15.10;98.70
8463;DHT22;4268;52.506;13.462;2022-07-10T00:43:59;15.10;98.90
8463;DHT22;4268;52.506;13.462;2022-07-10T00:46:26;15.10;98.80
8463;DHT22;4268;52.506;13.462;2022-07-10T00:48:52;15.10;99.10
8463;DHT22;4268;52.506;13.462;2022-07-10T00:51:19;15.10;98.90
8463;DHT22;4268;52.506;13.462;2022-07-10T00:53:46;15.00;98.90
8463;DHT22;4268;52.506;13.462;2022-07-10T00:56:13;15.10;99.00
8463;DHT22;4268;52.506;13.462;2022-07-10T00:58:40;14.30;98.50
8463;DHT22;4268;52.506;13.462;2022-07-10T01:01:06;15.10;98.90
8463;DHT22;4268;52.506;13.462;2022-07-10T01:03:32;15.10;99.00
8463;DHT22;4268;52.506;13.462;2022-07-10T01:05:58;15.10;98.90
8463;DHT22;4268;52.506;13.462;2022-07-10T01:08:24;15.10;99.40
8463;DHT22;4268;52.506;13.462;2022-07-10T01:10:50;15.10;99.00
8463;DHT22;4268;52.506;13.462;2022-07-10T01:13:16;15.10;99.10
8463;DHT22;4268;52.506;13.462;2022-07-10T01:15:42;15.10;99.10
8463;DHT22;4268;52.506;13.462;2022-07-10T01:18:08;15.10;99.10
8463;DHT22;4268;52.506;13.462;2022-07-10T01:20:33;15.10;99.10
8463;DHT22;4268;52.506;13.462;2022-07-10T01:23:00;15.10;99.00
8463;DHT22;4268;52.506;13.462;2022-07-10T01:25:25;15.00;99.10
8463;DHT22;4268;52.506;13.462;2022-07-10T01:27:51;15.00;99.20
8463;DHT22;4268;52.506;13.462;2022-07-10T01:30:17;15.00;99.60
8463;DHT22;4268;52.506;13.462;2022-07-10T01:32:46;15.00;99.20
8463;DHT22;4268;52.506;13.462;2022-07-10T01:35:12;15.00;99.30
8463;DHT22;4268;52.506;13.462;2022-07-10T01:37:39;15.00;99.30
8463;DHT22;4268;52.506;13.462;2022-07-10T01:40:06;15.00;99.40
8463;DHT22;4268;52.506;13.462;2022-07-10T01:42:32;15.00;99.40
8463;DHT22;4268;52.506;13.462;2022-07-10T01:44:57;15.00;99.40
8463;DHT22;4268;52.506;13.462;2022-07-10T01:47:23;15.00;99.60
8463;DHT22;4268;52.506;13.462;2022-07-10T01:49:50;15.00;99.60
8463;DHT22;4268;52.506;13.462;2022-07-10T01:52:16;15.00;99.70
8463;DHT22;4268;52.506;13.462;2022-07-10T01:54:42;14.90;99.60
8463;DHT22;4268;52.506;13.462;2022-07-10T01:57:07;15.00;99.60
8463;DHT22;4268;52.506;13.462;2022-07-10T01:59:33;14.90;99.50
8463;DHT22;4268;52.506;13.462;2022-07-10T02:01:58;15.00;99.60
8463;DHT22;4268;52.506;13.462;2022-07-10T02:04:24;14.90;99.60
8463;DHT22;4268;52.506;13.462;2022-07-10T02:09:34;14.90;99.90
8463;DHT22;4268;52.506;13.462;2022-07-10T02:12:00;14.90;99.80
8463;DHT22;4268;52.506;13.462;2022-07-10T02:14:25;14.90;99.70
8463;DHT22;4268;52.506;13.462;2022-07-10T02:16:51;14.90;99.80
8463;DHT22;4268;52.506;13.462;2022-07-10T02:19:17;14.80;99.90
8463;DHT22;4268;52.506;13.462;2022-07-10T02:21:42;14.90;99.90
8463;DHT22;4268;52.506;13.462;2022-07-10T02:24:08;14.80;99.90
8463;DHT22;4268;52.506;13.462;2022-07-10T02:26:33;14.80;99.90
8463;DHT22;4268;52.506;13.462;2022-07-10T02:28:59;14.80;99.90
8463;DHT22;4268;52.506;13.462;2022-07-10T02:31:24;14.80;99.90
8463;DHT22;4268;52.506;13.462;2022-07-10T02:33:50;14.80;99.90
8463;DHT22;4268;52.506;13.462;2022-07-10T02:36:15;14.80;99.90
8463;DHT22;4268;52.506;13.462;2022-07-10T02:38:41;14.80;99.90
8463;DHT22;4268;52.506;13.462;2022-07-10T02:41:06;14.70;99.90
8463;DHT22;4268;52.506;13.462;2022-07-10T02:43:32;14.70;99.90
8463;DHT22;4268;52.506;13.462;2022-07-10T02:45:57;14.70;99.90
8463;DHT22;4268;52.506;13.462;2022-07-10T02:48:23;14.70;99.90
8463;DHT22;4268;52.506;13.462;2022-07-10T02:50:48;14.70;99.90
8463;DHT22;4268;52.506;13.462;2022-07-10T02:53:14;14.70;99.90
8463;DHT22;4268;52.506;13.462;2022-07-10T02:55:39;14.70;99.90
8463;DHT22;4268;52.506;13.462;2022-07-10T02:58:05;14.60;99.90
8463;DHT22;4268;52.506;13.462;2022-07-10T03:00:30;14.60;99.90
8463;DHT22;4268;52.506;13.462;2022-07-10T03:02:56;14.60;99.90
8463;DHT22;4268;52.506;13.462;2022-07-10T03:05:22;14.50;99.90
8463;DHT22;4268;52.506;13.462;2022-07-10T03:07:48;14.50;99.90
8463;DHT22;4268;52.506;13.462;2022-07-10T03:10:13;14.50;99.90
8463;DHT22;4268;52.506;13.462;2022-07-10T03:12:39;14.50;99.90
8463;DHT22;4268;52.506;13.462;2022-07-10T03:15:05;14.50;99.90
8463;DHT22;4268;52.506;13.462;2022-07-10T03:17:31;14.50;99.90
8463;DHT22;4268;52.506;13.462;2022-07-10T03:19:57;14.50;99.90
8463;DHT22;4268;52.506;13.462;2022-07-10T03:22:22;14.50;99.90
8463;DHT22;4268;52.506;13.462;2022-07-10T03:24:48;14.50;99.90
8463;DHT22;4268;52.506;13.462;2022-07-10T03:27:14;14.40;99.90
8463;DHT22;4268;52.506;13.462;2022-07-10T03:29:40;14.40;99.90
8463;DHT22;4268;52.506;13.462;2022-07-10T03:32:06;14.40;99.90
8463;DHT22;4268;52.506;13.462;2022-07-10T03:34:31;14.40;99.90
8463;DHT22;4268;52.506;13.462;2022-07-10T03:36:59;14.50;99.90
8463;DHT22;4268;52.506;13.462;2022-07-10T03:39:26;14.40;99.90
8463;DHT22;4268;52.506;13.462;2022-07-10T03:41:52;14.50;99.90
8463;DHT22;4268;52.506;13.462;2022-07-10T03:44:17;14.50;99.90
8463;DHT22;4268;52.506;13.462;2022-07-10T03:46:43;14.40;99.90
8463;DHT22;4268;52.506;13.462;2022-07-10T03:49:08;14.40;99.90
8463;DHT22;4268;52.506;13.462;2022-07-10T03:51:34;14.50;99.90
8463;DHT22;4268;52.506;13.462;2022-07-10T03:53:59;14.50;99.90
8463;DHT22;4268;52.506;13.462;2022-07-10T03:56:25;14.50;99.90
8463;DHT22;4268;52.506;13.462;2022-07-10T03:59:09;14.50;99.90
8463;DHT22;4268;52.506;13.462;2022-07-10T04:01:34;14.50;99.90
8463;DHT22;4268;52.506;13.462;2022-07-10T04:04:00;14.50;99.90
8463;DHT22;4268;52.506;13.462;2022-07-10T04:06:25;14.50;99.90
8463;DHT22;4268;52.506;13.462;2022-07-10T04:08:51;14.50;99.90
8463;DHT22;4268;52.506;13.462;2022-07-10T04:11:17;14.50;99.90
8463;DHT22;4268;52.506;13.462;2022-07-10T04:13:42;14.50;99.90
8463;DHT22;4268;52.506;13.462;2022-07-10T04:16:08;14.50;99.90
8463;DHT22;4268;52.506;13.462;2022-07-10T04:18:41;14.50;99.90
8463;DHT22;4268;52.506;13.462;2022-07-10T04:21:06;14.50;99.90
8463;DHT22;4268;52.506;13.462;2022-07-10T04:23:35;14.50;99.90
8463;DHT22;4268;52.506;13.462;2022-07-10T04:26:01;14.50;99.90
8463;DHT22;4268;52.506;13.462;2022-07-10T04:28:27;14.50;99.90
8463;DHT22;4268;52.506;13.462;2022-07-10T04:30:52;14.50;99.90
8463;DHT22;4268;52.506;13.462;2022-07-10T04:33:18;14.50;99.90
8463;DHT22;4268;52.506;13.462;2022-07-10T04:35:43;14.60;99.90
8463;DHT22;4268;52.506;13.462;2022-07-10T04:38:09;14.60;99.90
8463;DHT22;4268;52.506;13.462;2022-07-10T04:40:35;14.60;99.90
8463;DHT22;4268;52.506;13.462;2022-07-10T04:43:00;14.60;99.90
8463;DHT22;4268;52.506;13.462;2022-07-10T04:45:26;14.50;99.90
8463;DHT22;4268;52.506;13.462;2022-07-10T04:47:52;14.50;99.90
8463;DHT22;4268;52.506;13.462;2022-07-10T04:50:17;14.60;99.90
8463;DHT22;4268;52.506;13.462;2022-07-10T04:52:43;14.60;99.90
8463;DHT22;4268;52.506;13.462;2022-07-10T04:55:09;14.60;99.90
8463;DHT22;4268;52.506;13.462;2022-07-10T04:57:34;14.60;99.90
8463;DHT22;4268;52.506;13.462;2022-07-10T05:00:00;14.70;99.90
8463;DHT22;4268;52.506;13.462;2022-07-10T05:02:25;14.70;99.90
8463;DHT22;4268;52.506;13.462;2022-07-10T05:04:51;14.70;99.90
8463;DHT22;4268;52.506;13.462;2022-07-10T05:07:16;14.80;99.90
8463;DHT22;4268;52.506;13.462;2022-07-10T05:09:42;14.90;99.90
8463;DHT22;4268;52.506;13.462;2022-07-10T05:12:07;14.90;99.90
8463;DHT22;4268;52.506;13.462;2022-07-10T05:14:33;14.90;99.90
8463;DHT22;4268;52.506;13.462;2022-07-10T05:16:59;15.00;99.90
8463;DHT22;4268;52.506;13.462;2022-07-10T05:19:24;14.90;99.90
8463;DHT22;4268;52.506;13.462;2022-07-10T05:21:50;14.90;99.90
8463;DHT22;4268;52.506;13.462;2022-07-10T05:24:15;14.90;99.90
8463;DHT22;4268;52.506;13.462;2022-07-10T05:26:41;14.90;99.90
8463;DHT22;4268;52.506;13.462;2022-07-10T05:29:07;14.80;99.90
8463;DHT22;4268;52.506;13.462;2022-07-10T05:31:32;14.80;99.90
8463;DHT22;4268;52.506;13.462;2022-07-10T05:33:58;14.80;99.90
8463;DHT22;4268;52.506;13.462;2022-07-10T05:36:23;14.80;99.90
8463;DHT22;4268;52.506;13.462;2022-07-10T05:38:49;14.90;99.90
8463;DHT22;4268;52.506;13.462;2022-07-10T05:41:15;14.90;99.90
8463;DHT22;4268;52.506;13.462;2022-07-10T05:43:40;15.00;99.90
8463;DHT22;4268;52.506;13.462;2022-07-10T05:46:06;15.00;99.90
8463;DHT22;4268;52.506;13.462;2022-07-10T05:48:32;15.00;99.90
8463;DHT22;4268;52.506;13.462;2022-07-10T05:50:57;15.10;99.90
8463;DHT22;4268;52.506;13.462;2022-07-10T05:53:23;15.20;99.90
8463;DHT22;4268;52.506;13.462;2022-07-10T05:55:48;15.20;99.90
8463;DHT22;4268;52.506;13.462;2022-07-10T05:58:15;15.20;99.90
8463;DHT22;4268;52.506;13.462;2022-07-10T06:00:41;15.20;99.90
8463;DHT22;4268;52.506;13.462;2022-07-10T06:03:09;15.20;99.90
8463;DHT22;4268;52.506;13.462;2022-07-10T06:05:35;15.20;99.90
8463;DHT22;4268;52.506;13.462;2022-07-10T06:08:01;15.20;99.90
8463;DHT22;4268;52.506;13.462;2022-07-10T06:10:27;15.30;99.90
8463;DHT22;4268;52.506;13.462;2022-07-10T06:12:52;15.30;99.90
8463;DHT22;4268;52.506;13.462;2022-07-10T06:15:18;15.30;99.90
8463;DHT22;4268;52.506;13.462;2022-07-10T06:17:43;15.40;99.90
8463;DHT22;4268;52.506;13.462;2022-07-10T06:20:09;15.40;99.90
8463;DHT22;4268;52.506;13.462;2022-07-10T06:22:35;15.40;99.90
8463;DHT22;4268;52.506;13.462;2022-07-10T06:25:05;15.40;99.90
8463;DHT22;4268;52.506;13.462;2022-07-10T06:27:31;15.40;99.90
8463;DHT22;4268;52.506;13.462;2022-07-10T06:29:57;15.40;99.90
8463;DHT22;4268;52.506;13.462;2022-07-10T06:32:23;15.30;99.90
8463;DHT22;4268;52.506;13.462;2022-07-10T06:34:50;15.40;99.90
8463;DHT22;4268;52.506;13.462;2022-07-10T06:37:16;15.30;99.90
8463;DHT22;4268;52.506;13.462;2022-07-10T06:39:41;15.40;99.90
8463;DHT22;4268;52.506;13.462;2022-07-10T06:42:07;15.50;99.90
8463;DHT22;4268;52.506;13.462;2022-07-10T06:44:32;15.60;99.90
8463;DHT22;4268;52.506;13.462;2022-07-10T06:46:59;15.70;99.90
8463;DHT22;4268;52.506;13.462;2022-07-10T06:49:45;15.70;99.90
8463;DHT22;4268;52.506;13.462;2022-07-10T06:52:11;15.80;99.90
8463;DHT22;4268;52.506;13.462;2022-07-10T06:54:37;15.80;99.90
8463;DHT22;4268;52.506;13.462;2022-07-10T06:57:03;15.80;99.90
8463;DHT22;4268;52.506;13.462;2022-07-10T07:02:09;15.70;99.90
8463;DHT22;4268;52.506;13.462;2022-07-10T07:04:34;15.70;99.90
8463;DHT22;4268;52.506;13.462;2022-07-10T07:07:02;15.70;99.90
8463;DHT22;4268;52.506;13.462;2022-07-10T07:09:27;15.80;99.90
8463;DHT22;4268;52.506;13.462;2022-07-10T07:11:53;15.80;99.90
8463;DHT22;4268;52.506;13.462;2022-07-10T07:14:18;15.90;99.90
8463;DHT22;4268;52.506;13.462;2022-07-10T07:16:44;16.00;99.90
8463;DHT22;4268;52.506;13.462;2022-07-10T07:19:23;16.20;99.90
8463;DHT22;4268;52.506;13.462;2022-07-10T07:21:57;16.40;99.90
8463;DHT22;4268;52.506;13.462;2022-07-10T07:24:42;16.50;99.70
8463;DHT22;4268;52.506;13.462;2022-07-10T07:27:09;16.70;99.20
8463;DHT22;4268;52.506;13.462;2022-07-10T07:29:34;16.80;98.30
8463;DHT22;4268;52.506;13.462;2022-07-10T07:32:00;16.90;98.50
8463;DHT22;4268;52.506;13.462;2022-07-10T07:34:25;17.00;98.00
8463;DHT22;4268;52.506;13.462;2022-07-10T07:36:51;17.00;97.90
8463;DHT22;4268;52.506;13.462;2022-07-10T07:39:17;17.00;97.80
8463;DHT22;4268;52.506;13.462;2022-07-10T07:41:42;17.10;97.50
8463;DHT22;4268;52.506;13.462;2022-07-10T07:44:07;17.20;97.30
8463;DHT22;4268;52.506;13.462;2022-07-10T07:46:33;17.30;96.00
8463;DHT22;4268;52.506;13.462;2022-07-10T07:48:59;17.40;95.30
8463;DHT22;4268;52.506;13.462;2022-07-10T07:51:25;17.40;94.80
8463;DHT22;4268;52.506;13.462;2022-07-10T07:53:50;17.40;95.20
8463;DHT22;4268;52.506;13.462;2022-07-10T07:56:16;17.40;94.60
8463;DHT22;4268;52.506;13.462;2022-07-10T07:58:42;17.40;94.30
8463;DHT22;4268;52.506;13.462;2022-07-10T08:01:07;17.50;94.50
8463;DHT22;4268;52.506;13.462;2022-07-10T08:03:33;17.70;93.80
8463;DHT22;4268;52.506;13.462;2022-07-10T08:05:58;17.90;93.40
8463;DHT22;4268;52.506;13.462;2022-07-10T08:08:24;18.10;93.00
8463;DHT22;4268;52.506;13.462;2022-07-10T08:10:49;18.20;92.90
8463;DHT22;4268;52.506;13.462;2022-07-10T08:13:15;18.20;93.10
8463;DHT22;4268;52.506;13.462;2022-07-10T08:15:40;18.50;92.90
8463;DHT22;4268;52.506;13.462;2022-07-10T08:18:06;18.60;92.40
8463;DHT22;4268;52.506;13.462;2022-07-10T08:20:32;18.70;91.60
8463;DHT22;4268;52.506;13.462;2022-07-10T08:22:58;18.60;91.20
8463;DHT22;4268;52.506;13.462;2022-07-10T08:25:24;18.40;91.00
8463;DHT22;4268;52.506;13.462;2022-07-10T08:27:50;18.40;91.50
8463;DHT22;4268;52.506;13.462;2022-07-10T08:30:16;18.70;91.40
8463;DHT22;4268;52.506;13.462;2022-07-10T08:32:41;19.00;91.50
8463;DHT22;4268;52.506;13.462;2022-07-10T08:35:08;19.30;90.10
8463;DHT22;4268;52.506;13.462;2022-07-10T08:37:41;19.50;89.40
8463;DHT22;4268;52.506;13.462;2022-07-10T08:40:14;19.70;88.50
8463;DHT22;4268;52.506;13.462;2022-07-10T08:42:43;19.50;88.60
8463;DHT22;4268;52.506;13.462;2022-07-10T08:45:12;19.20;88.30
8463;DHT22;4268;52.506;13.462;2022-07-10T08:47:38;18.80;89.30
8463;DHT22;4268;52.506;13.462;2022-07-10T08:50:26;18.40;90.40
8463;DHT22;4268;52.506;13.462;2022-07-10T08:53:32;18.10;91.00
8463;DHT22;4268;52.506;13.462;2022-07-10T08:55:58;17.80;91.40
8463;DHT22;4268;52.506;13.462;2022-07-10T08:58:26;17.90;91.40
8463;DHT22;4268;52.506;13.462;2022-07-10T09:00:52;17.90;91.40
8463;DHT22;4268;52.506;13.462;2022-07-10T09:03:18;18.10;91.40
8463;DHT22;4268;52.506;13.462;2022-07-10T09:05:44;18.20;91.20
8463;DHT22;4268;52.506;13.462;2022-07-10T09:08:24;18.20;91.50
8463;DHT22;4268;52.506;13.462;2022-07-10T09:11:05;18.10;91.70
8463;DHT22;4268;52.506;13.462;2022-07-10T09:13:52;18.00;91.70
8463;DHT22;4268;52.506;13.462;2022-07-10T09:16:21;18.00;91.90
8463;DHT22;4268;52.506;13.462;2022-07-10T09:18:47;18.00;93.00
8463;DHT22;4268;52.506;13.462;2022-07-10T09:21:12;18.00;91.90
8463;DHT22;4268;52.506;13.462;2022-07-10T09:23:38;18.10;91.90
8463;DHT22;4268;52.506;13.462;2022-07-10T09:26:04;18.20;90.40
8463;DHT22;4268;52.506;13.462;2022-07-10T09:28:29;18.20;90.50
8463;DHT22;4268;52.506;13.462;2022-07-10T09:30:56;18.30;90.40
8463;DHT22;4268;52.506;13.462;2022-07-10T09:33:23;18.40;88.90
8463;DHT22;4268;52.506;13.462;2022-07-10T09:35:58;18.40;88.90
8463;DHT22;4268;52.506;13.462;2022-07-10T09:38:48;18.40;88.60
8463;DHT22;4268;52.506;13.462;2022-07-10T09:41:29;18.40;89.20
8463;DHT22;4268;52.506;13.462;2022-07-10T09:44:05;18.50;89.00
8463;DHT22;4268;52.506;13.462;2022-07-10T09:46:38;18.70;89.20
8463;DHT22;4268;52.506;13.462;2022-07-10T09:49:11;18.90;89.50
8463;DHT22;4268;52.506;13.462;2022-07-10T09:51:41;19.00;88.70
8463;DHT22;4268;52.506;13.462;2022-07-10T09:54:08;18.90;87.70
8463;DHT22;4268;52.506;13.462;2022-07-10T09:56:45;19.00;86.60
8463;DHT22;4268;52.506;13.462;2022-07-10T09:59:16;18.90;86.50
8463;DHT22;4268;52.506;13.462;2022-07-10T10:01:49;18.90;86.70
8463;DHT22;4268;52.506;13.462;2022-07-10T10:04:16;18.90;87.70
8463;DHT22;4268;52.506;13.462;2022-07-10T10:06:46;19.00;86.60
8463;DHT22;4268;52.506;13.462;2022-07-10T10:09:22;19.10;87.20
8463;DHT22;4268;52.506;13.462;2022-07-10T10:11:49;19.20;86.70
8463;DHT22;4268;52.506;13.462;2022-07-10T10:14:18;19.30;87.70
8463;DHT22;4268;52.506;13.462;2022-07-10T10:16:46;19.20;87.20
8463;DHT22;4268;52.506;13.462;2022-07-10T10:19:14;19.00;87.90
8463;DHT22;4268;52.506;13.462;2022-07-10T10:21:59;19.00;88.40
8463;DHT22;4268;52.506;13.462;2022-07-10T10:24:25;19.00;86.60
8463;DHT22;4268;52.506;13.462;2022-07-10T10:26:51;19.10;86.60
8463;DHT22;4268;52.506;13.462;2022-07-10T10:29:17;19.10;85.80
8463;DHT22;4268;52.506;13.462;2022-07-10T10:31:43;19.10;85.30
8463;DHT22;4268;52.506;13.462;2022-07-10T10:34:09;19.00;85.00
8463;DHT22;4268;52.506;13.462;2022-07-10T10:39:18;18.90;85.60
8463;DHT22;4268;52.506;13.462;2022-07-10T10:41:50;18.80;85.80
8463;DHT22;4268;52.506;13.462;2022-07-10T10:47:03;19.10;86.50
8463;DHT22;4268;52.506;13.462;2022-07-10T10:50:06;19.20;85.10
8463;DHT22;4268;52.506;13.462;2022-07-10T10:52:31;19.20;84.60
8463;DHT22;4268;52.506;13.462;2022-07-10T10:57:34;19.40;83.20
8463;DHT22;4268;52.506;13.462;2022-07-10T11:00:03;19.50;83.00
8463;DHT22;4268;52.506;13.462;2022-07-10T11:02:34;19.50;80.80
8463;DHT22;4268;52.506;13.462;2022-07-10T11:10:37;19.60;81.30
8463;DHT22;4268;52.506;13.462;2022-07-10T11:15:31;19.50;80.10
8463;DHT22;4268;52.506;13.462;2022-07-10T11:17:59;19.40;80.30
8463;DHT22;4268;52.506;13.462;2022-07-10T11:20:24;19.40;81.70
8463;DHT22;4268;52.506;13.462;2022-07-10T11:25:51;19.50;81.80
8463;DHT22;4268;52.506;13.462;2022-07-10T11:31:22;19.60;81.50
8463;DHT22;4268;52.506;13.462;2022-07-10T11:33:50;19.80;81.50
8463;DHT22;4268;52.506;13.462;2022-07-10T11:36:19;20.00;80.50
8463;DHT22;4268;52.506;13.462;2022-07-10T11:38:45;20.00;80.70
8463;DHT22;4268;52.506;13.462;2022-07-10T11:41:17;20.00;81.00
8463;DHT22;4268;52.506;13.462;2022-07-10T11:43:57;19.90;81.80
8463;DHT22;4268;52.506;13.462;2022-07-10T11:46:25;19.90;80.80
8463;DHT22;4268;52.506;13.462;2022-07-10T11:48:52;19.80;80.60
8463;DHT22;4268;52.506;13.462;2022-07-10T11:51:27;19.80;80.80
8463;DHT22;4268;52.506;13.462;2022-07-10T11:54:01;19.80;80.00
8463;DHT22;4268;52.506;13.462;2022-07-10T11:56:29;19.80;80.30
8463;DHT22;4268;52.506;13.462;2022-07-10T11:58:59;19.80;80.60
8463;DHT22;4268;52.506;13.462;2022-07-10T12:01:25;19.90;80.50
8463;DHT22;4268;52.506;13.462;2022-07-10T12:03:55;20.20;81.00
8463;DHT22;4268;52.506;13.462;2022-07-10T12:06:22;20.30;80.50
8463;DHT22;4268;52.506;13.462;2022-07-10T12:08:48;20.30;80.50
8463;DHT22;4268;52.506;13.462;2022-07-10T12:11:18;20.10;80.30
8463;DHT22;4268;52.506;13.462;2022-07-10T12:13:46;20.00;80.20
8463;DHT22;4268;52.506;13.462;2022-07-10T12:16:12;19.80;80.20
8463;DHT22;4268;52.506;13.462;2022-07-10T12:18:39;19.70;81.00
8463;DHT22;4268;52.506;13.462;2022-07-10T12:21:08;19.70;82.10
8463;DHT22;4268;52.506;13.462;2022-07-10T12:23:34;19.60;81.00
8463;DHT22;4268;52.506;13.462;2022-07-10T12:26:00;19.70;80.40
8463;DHT22;4268;52.506;13.462;2022-07-10T12:28:28;19.60;79.20
8463;DHT22;4268;52.506;13.462;2022-07-10T12:30:54;19.60;80.00
8463;DHT22;4268;52.506;13.462;2022-07-10T12:33:21;19.70;79.90
8463;DHT22;4268;52.506;13.462;2022-07-10T12:35:54;19.90;80.10
8463;DHT22;4268;52.506;13.462;2022-07-10T12:38:26;19.90;79.50
8463;DHT22;4268;52.506;13.462;2022-07-10T12:41:10;19.90;80.10
8463;DHT22;4268;52.506;13.462;2022-07-10T12:43:36;19.90;80.10
8463;DHT22;4268;52.506;13.462;2022-07-10T12:46:16;19.80;79.80
8463;DHT22;4268;52.506;13.462;2022-07-10T12:51:29;19.80;80.00
8463;DHT22;4268;52.506;13.462;2022-07-10T12:53:55;19.70;79.90
8463;DHT22;4268;52.506;13.462;2022-07-10T12:56:32;19.70;81.20
8463;DHT22;4268;52.506;13.462;2022-07-10T12:59:00;19.70;81.20
8463;DHT22;4268;52.506;13.462;2022-07-10T13:01:47;19.80;81.30
8463;DHT22;4268;52.506;13.462;2022-07-10T13:04:13;19.80;80.50
8463;DHT22;4268;52.506;13.462;2022-07-10T13:06:39;19.70;81.50
8463;DHT22;4268;52.506;13.462;2022-07-10T13:09:19;19.70;82.00
8463;DHT22;4268;52.506;13.462;2022-07-10T13:11:46;19.80;82.70
8463;DHT22;4268;52.506;13.462;2022-07-10T13:14:11;20.00;81.10
8463;DHT22;4268;52.506;13.462;2022-07-10T13:16:37;20.10;80.30
8463;DHT22;4268;52.506;13.462;2022-07-10T13:19:03;20.20;79.00
8463;DHT22;4268;52.506;13.462;2022-07-10T13:21:28;20.20;79.30
8463;DHT22;4268;52.506;13.462;2022-07-10T13:23:53;20.20;80.40
8463;DHT22;4268;52.506;13.462;2022-07-10T13:26:19;20.10;79.90
8463;DHT22;4268;52.506;13.462;2022-07-10T13:28:44;20.00;79.90
8463;DHT22;4268;52.506;13.462;2022-07-10T13:31:10;19.90;80.10
8463;DHT22;4268;52.506;13.462;2022-07-10T13:33:35;19.90;80.10
8463;DHT22;4268;52.506;13.462;2022-07-10T13:36:02;19.90;80.10
8463;DHT22;4268;52.506;13.462;2022-07-10T13:38:28;20.00;80.20
8463;DHT22;4268;52.506;13.462;2022-07-10T13:40:54;20.00;79.80
8463;DHT22;4268;52.506;13.462;2022-07-10T13:43:19;20.00;80.90
8463;DHT22;4268;52.506;13.462;2022-07-10T13:45:46;20.10;78.30
8463;DHT22;4268;52.506;13.462;2022-07-10T13:48:13;20.10;78.50
8463;DHT22;4268;52.506;13.462;2022-07-10T13:50:40;20.00;78.30
8463;DHT22;4268;52.506;13.462;2022-07-10T13:53:06;19.90;78.40
8463;DHT22;4268;52.506;13.462;2022-07-10T13:55:33;19.90;79.50
8463;DHT22;4268;52.506;13.462;2022-07-10T13:57:59;19.90;79.30
8463;DHT22;4268;52.506;13.462;2022-07-10T14:00:25;19.90;79.50
8463;DHT22;4268;52.506;13.462;2022-07-10T14:02:50;19.90;80.10
8463;DHT22;4268;52.506;13.462;2022-07-10T14:05:16;20.00;80.20
8463;DHT22;4268;52.506;13.462;2022-07-10T14:07:41;20.00;80.20
8463;DHT22;4268;52.506;13.462;2022-07-10T14:10:07;19.90;80.60
8463;DHT22;4268;52.506;13.462;2022-07-10T14:12:33;20.00;80.20
8463;DHT22;4268;52.506;13.462;2022-07-10T14:14:59;20.10;78.00
8463;DHT22;4268;52.506;13.462;2022-07-10T14:17:26;20.30;78.00
8463;DHT22;4268;52.506;13.462;2022-07-10T14:19:51;20.30;77.50
8463;DHT22;4268;52.506;13.462;2022-07-10T14:22:17;20.20;78.00
8463;DHT22;4268;52.506;13.462;2022-07-10T14:24:42;20.20;78.20
8463;DHT22;4268;52.506;13.462;2022-07-10T14:27:08;20.20;77.90
8463;DHT22;4268;52.506;13.462;2022-07-10T14:29:34;20.30;77.60
8463;DHT22;4268;52.506;13.462;2022-07-10T14:31:59;20.40;78.30
8463;DHT22;4268;52.506;13.462;2022-07-10T14:34:25;20.40;76.50
8463;DHT22;4268;52.506;13.462;2022-07-10T14:36:53;20.30;76.20
8463;DHT22;4268;52.506;13.462;2022-07-10T14:39:18;20.30;76.90
8463;DHT22;4268;52.506;13.462;2022-07-10T14:41:44;20.10;76.30
8463;DHT22;4268;52.506;13.462;2022-07-10T14:44:09;20.00;77.10
8463;DHT22;4268;52.506;13.462;2022-07-10T14:46:35;20.10;77.60
8463;DHT22;4268;52.506;13.462;2022-07-10T14:49:00;20.10;77.50
8463;DHT22;4268;52.506;13.462;2022-07-10T14:51:26;20.10;76.40
8463;DHT22;4268;52.506;13.462;2022-07-10T14:53:52;20.20;75.30
8463;DHT22;4268;52.506;13.462;2022-07-10T14:56:17;20.10;75.40
8463;DHT22;4268;52.506;13.462;2022-07-10T14:58:45;20.20;75.60
8463;DHT22;4268;52.506;13.462;2022-07-10T15:01:11;20.20;75.10
8463;DHT22;4268;52.506;13.462;2022-07-10T15:03:36;20.20;75.90
8463;DHT22;4268;52.506;13.462;2022-07-10T15:06:02;20.30;76.20
8463;DHT22;4268;52.506;13.462;2022-07-10T15:08:27;20.40;75.10
8463;DHT22;4268;52.506;13.462;2022-07-10T15:10:53;20.30;75.20
8463;DHT22;4268;52.506;13.462;2022-07-10T15:13:18;20.30;76.00
8463;DHT22;4268;52.506;13.462;2022-07-10T15:15:44;20.40;76.80
8463;DHT22;4268;52.506;13.462;2022-07-10T15:18:09;20.40;75.40
8463;DHT22;4268;52.506;13.462;2022-07-10T15:20:35;20.50;74.40
8463;DHT22;4268;52.506;13.462;2022-07-10T15:23:02;20.50;74.00
8463;DHT22;4268;52.506;13.462;2022-07-10T15:25:28;20.50;74.80
8463;DHT22;4268;52.506;13.462;2022-07-10T15:27:53;20.50;74.40
8463;DHT22;4268;52.506;13.462;2022-07-10T15:30:19;20.60;74.30
8463;DHT22;4268;52.506;13.462;2022-07-10T15:32:45;20.70;73.70
8463;DHT22;4268;52.506;13.462;2022-07-10T15:35:11;20.80;74.30
8463;DHT22;4268;52.506;13.462;2022-07-10T15:37:37;20.70;74.00
8463;DHT22;4268;52.506;13.462;2022-07-10T15:40:04;20.80;73.20
8463;DHT22;4268;52.506;13.462;2022-07-10T15:42:29;20.70;73.10
8463;DHT22;4268;52.506;13.462;2022-07-10T15:44:55;20.80;73.20
8463;DHT22;4268;52.506;13.462;2022-07-10T15:47:21;20.70;72.90
8463;DHT22;4268;52.506;13.462;2022-07-10T15:49:46;20.80;72.90
8463;DHT22;4268;52.506;13.462;2022-07-10T15:52:12;20.80;75.50
8463;DHT22;4268;52.506;13.462;2022-07-10T15:54:37;20.80;71.90
8463;DHT22;4268;52.506;13.462;2022-07-10T15:57:03;20.70;72.20
8463;DHT22;4268;52.506;13.462;2022-07-10T15:59:29;20.70;73.20
8463;DHT22;4268;52.506;13.462;2022-07-10T16:01:55;20.70;73.20
8463;DHT22;4268;52.506;13.462;2022-07-10T16:04:22;20.80;73.40
8463;DHT22;4268;52.506;13.462;2022-07-10T16:06:49;20.80;73.00
8463;DHT22;4268;52.506;13.462;2022-07-10T16:09:15;20.80;73.00
8463;DHT22;4268;52.506;13.462;2022-07-10T16:11:42;20.80;72.10
8463;DHT22;4268;52.506;13.462;2022-07-10T16:14:08;20.70;72.60
8463;DHT22;4268;52.506;13.462;2022-07-10T16:16:34;20.70;72.80